sensor_id;sensor_type;location;lat;lon;timestamp;temperature;humidity
42715;DHT22;28351;51.480;5.706;2024-02-21T00:00:47;9.30;99.90
42715;DHT22;28351;51.480;5.706;2024-02-21T00:03:13;9.30;99.90
42715;DHT22;28351;51.480;5.706;2024-02-21T00:05:38;9.30;99.90
42715;DHT22;28351;51.480;5.706;2024-02-21T00:08:04;9.30;99.90
42715;DHT22;28351;51.480;5.706;2024-02-21T00:10:30;9.30;99.90
42715;DHT22;28351;51.480;5.706;2024-02-21T00:12:57;9.30;99.90
42715;DHT22;28351;51.480;5.706;2024-02-21T00:15:24;9.40;99.90
42715;DHT22;28351;51.480;5.706;2024-02-21T00:17:50;9.30;99.90
42715;DHT22;28351;51.480;5.706;2024-02-21T00:20:15;9.30;99.90
42715;DHT22;28351;51.480;5.706;2024-02-21T00:22:41;9.30;99.90
42715;DHT22;28351;51.480;5.706;2024-02-21T00:25:06;9.30;99.90
42715;DHT22;28351;51.480;5.706;2024-02-21T00:27:32;9.30;99.90
42715;DHT22;28351;51.480;5.706;2024-02-21T00:29:57;9.30;99.90
42715;DHT22;28351;51.480;5.706;2024-02-21T00:32:23;9.30;99.90
42715;DHT22;28351;51.480;5.706;2024-02-21T00:34:48;9.30;99.90
42715;DHT22;28351;51.480;5.706;2024-02-21T00:37:14;9.30;99.90
42715;DHT22;28351;51.480;5.706;2024-02-21T00:39:39;9.30;99.90
42715;DHT22;28351;51.480;5.706;2024-02-21T00:42:05;9.30;99.90
42715;DHT22;28351;51.480;5.706;2024-02-21T00:44:32;9.40;99.90
42715;DHT22;28351;51.480;5.706;2024-02-21T00:46:58;9.40;99.90
42715;DHT22;28351;51.480;5.706;2024-02-21T00:49:23;9.40;99.90
42715;DHT22;28351;51.480;5.706;2024-02-21T00:51:49;9.40;99.90
42715;DHT22;28351;51.480;5.706;2024-02-21T00:54:14;9.40;99.90
42715;DHT22;28351;51.480;5.706;2024-02-21T00:56:40;9.30;99.90
42715;DHT22;28351;51.480;5.706;2024-02-21T00:59:05;9.20;99.90
42715;DHT22;28351;51.480;5.706;2024-02-21T01:01:30;9.10;99.90
42715;DHT22;28351;51.480;5.706;2024-02-21T01:03:56;9.00;99.90
42715;DHT22;28351;51.480;5.706;2024-02-21T01:06:22;8.90;99.90
42715;DHT22;28351;51.480;5.706;2024-02-21T01:08:47;8.90;99.90
42715;DHT22;28351;51.480;5.706;2024-02-21T01:11:13;8.80;99.90
42715;DHT22;28351;51.480;5.706;2024-02-21T01:13:39;8.80;99.90
42715;DHT22;28351;51.480;5.706;2024-02-21T01:16:04;8.80;99.90
42715;DHT22;28351;51.480;5.706;2024-02-21T01:18:34;8.70;99.90
42715;DHT22;28351;51.480;5.706;2024-02-21T01:21:02;8.80;99.90
42715;DHT22;28351;51.480;5.706;2024-02-21T01:23:27;8.80;99.90
42715;DHT22;28351;51.480;5.706;2024-02-21T01:25:53;8.70;99.90
42715;DHT22;28351;51.480;5.706;2024-02-21T01:28:19;8.80;99.90
42715;DHT22;28351;51.480;5.706;2024-02-21T01:30:45;8.80;99.90
42715;DHT22;28351;51.480;5.706;2024-02-21T01:33:10;8.80;99.90
42715;DHT22;28351;51.480;5.706;2024-02-21T01:35:36;8.90;99.90
42715;DHT22;28351;51.480;5.706;2024-02-21T01:38:02;8.90;99.90
42715;DHT22;28351;51.480;5.706;2024-02-21T01:40:27;8.80;99.90
42715;DHT22;28351;51.480;5.706;2024-02-21T01:42:55;8.80;99.90
42715;DHT22;28351;51.480;5.706;2024-02-21T01:45:20;8.70;99.90
42715;DHT22;28351;51.480;5.706;2024-02-21T01:47:46;8.80;99.90
42715;DHT22;28351;51.480;5.706;2024-02-21T01:50:12;8.70;99.90
42715;DHT22;28351;51.480;5.706;2024-02-21T01:52:38;8.70;99.90
42715;DHT22;28351;51.480;5.706;2024-02-21T01:55:04;8.60;99.90
42715;DHT22;28351;51.480;5.706;2024-02-21T01:57:30;8.60;99.90
42715;DHT22;28351;51.480;5.706;2024-02-21T01:59:56;8.60;99.90
42715;DHT22;28351;51.480;5.706;2024-02-21T02:02:21;8.70;99.90
42715;DHT22;28351;51.480;5.706;2024-02-21T02:04:47;8.70;99.90
42715;DHT22;28351;51.480;5.706;2024-02-21T02:07:13;8.80;99.90
42715;DHT22;28351;51.480;5.706;2024-02-21T02:09:38;8.80;99.90
42715;DHT22;28351;51.480;5.706;2024-02-21T02:12:04;8.80;99.90
42715;DHT22;28351;51.480;5.706;2024-02-21T02:14:29;8.80;99.90
42715;DHT22;28351;51.480;5.706;2024-02-21T02:16:55;8.80;99.90
42715;DHT22;28351;51.480;5.706;2024-02-21T02:19:20;8.80;99.90
42715;DHT22;28351;51.480;5.706;2024-02-21T02:21:46;8.90;99.90
42715;DHT22;28351;51.480;5.706;2024-02-21T02:24:19;8.90;99.90
42715;DHT22;28351;51.480;5.706;2024-02-21T02:26:45;8.90;99.90
42715;DHT22;28351;51.480;5.706;2024-02-21T02:29:10;8.90;99.90
42715;DHT22;28351;51.480;5.706;2024-02-21T02:31:36;8.90;99.90
42715;DHT22;28351;51.480;5.706;2024-02-21T02:34:03;8.90;99.90
42715;DHT22;28351;51.480;5.706;2024-02-21T02:36:29;8.90;99.90
42715;DHT22;28351;51.480;5.706;2024-02-21T02:38:55;8.90;99.90
42715;DHT22;28351;51.480;5.706;2024-02-21T02:41:20;8.90;99.90
42715;DHT22;28351;51.480;5.706;2024-02-21T02:43:46;8.90;99.90
42715;DHT22;28351;51.480;5.706;2024-02-21T02:46:11;8.90;99.90
42715;DHT22;28351;51.480;5.706;2024-02-21T02:48:37;8.90;99.90
42715;DHT22;28351;51.480;5.706;2024-02-21T02:51:04;8.90;99.90
42715;DHT22;28351;51.480;5.706;2024-02-21T02:53:29;8.90;99.90
42715;DHT22;28351;51.480;5.706;2024-02-21T02:55:55;8.90;99.90
42715;DHT22;28351;51.480;5.706;2024-02-21T02:58:20;8.90;99.90
42715;DHT22;28351;51.480;5.706;2024-02-21T03:00:46;8.90;99.90
42715;DHT22;28351;51.480;5.706;2024-02-21T03:03:11;8.90;99.90
42715;DHT22;28351;51.480;5.706;2024-02-21T03:05:37;8.90;99.90
42715;DHT22;28351;51.480;5.706;2024-02-21T03:08:03;9.00;99.90
42715;DHT22;28351;51.480;5.706;2024-02-21T03:10:34;9.00;99.90
42715;DHT22;28351;51.480;5.706;2024-02-21T03:13:00;9.00;99.90
42715;DHT22;28351;51.480;5.706;2024-02-21T03:15:25;8.90;99.90
42715;DHT22;28351;51.480;5.706;2024-02-21T03:17:51;8.90;99.90
42715;DHT22;28351;51.480;5.706;2024-02-21T03:20:16;8.90;99.90
42715;DHT22;28351;51.480;5.706;2024-02-21T03:22:42;8.80;99.90
42715;DHT22;28351;51.480;5.706;2024-02-21T03:25:08;8.80;99.90
42715;DHT22;28351;51.480;5.706;2024-02-21T03:27:34;8.80;99.90
42715;DHT22;28351;51.480;5.706;2024-02-21T03:29:59;8.80;99.90
42715;DHT22;28351;51.480;5.706;2024-02-21T03:32:25;8.90;99.90
42715;DHT22;28351;51.480;5.706;2024-02-21T03:34:50;8.90;99.90
42715;DHT22;28351;51.480;5.706;2024-02-21T03:37:16;8.80;99.90
42715;DHT22;28351;51.480;5.706;2024-02-21T03:39:41;8.90;99.90
42715;DHT22;28351;51.480;5.706;2024-02-21T03:42:07;8.90;99.90
42715;DHT22;28351;51.480;5.706;2024-02-21T03:44:32;8.90;99.90
42715;DHT22;28351;51.480;5.706;2024-02-21T03:47:01;8.90;99.90
42715;DHT22;28351;51.480;5.706;2024-02-21T03:49:27;8.90;99.90
42715;DHT22;28351;51.480;5.706;2024-02-21T03:51:52;8.90;99.90
42715;DHT22;28351;51.480;5.706;2024-02-21T03:54:18;8.90;99.90
42715;DHT22;28351;51.480;5.706;2024-02-21T03:56:44;8.90;99.90
42715;DHT22;28351;51.480;5.706;2024-02-21T03:59:09;8.80;99.90
42715;DHT22;28351;51.480;5.706;2024-02-21T04:01:35;8.80;99.90
42715;DHT22;28351;51.480;5.706;2024-02-21T04:04:01;8.80;99.90
42715;DHT22;28351;51.480;5.706;2024-02-21T04:06:26;8.80;99.90
42715;DHT22;28351;51.480;5.706;2024-02-21T04:08:52;8.80;99.90
42715;DHT22;28351;51.480;5.706;2024-02-21T04:11:17;8.80;99.90
42715;DHT22;28351;51.480;5.706;2024-02-21T04:13:44;8.80;99.90
42715;DHT22;28351;51.480;5.706;2024-02-21T04:16:10;8.80;99.90
42715;DHT22;28351;51.480;5.706;2024-02-21T04:18:35;8.80;99.90
42715;DHT22;28351;51.480;5.706;2024-02-21T04:21:01;8.80;99.90
42715;DHT22;28351;51.480;5.706;2024-02-21T04:23:26;8.80;99.90
42715;DHT22;28351;51.480;5.706;2024-02-21T04:25:52;8.80;99.90
42715;DHT22;28351;51.480;5.706;2024-02-21T04:28:17;8.80;99.90
42715;DHT22;28351;51.480;5.706;2024-02-21T04:30:43;8.80;99.90
42715;DHT22;28351;51.480;5.706;2024-02-21T04:33:08;8.80;99.90
42715;DHT22;28351;51.480;5.706;2024-02-21T04:35:35;8.80;99.90
42715;DHT22;28351;51.480;5.706;2024-02-21T04:38:01;8.80;99.90
42715;DHT22;28351;51.480;5.706;2024-02-21T04:40:26;8.80;99.90
42715;DHT22;28351;51.480;5.706;2024-02-21T04:42:52;8.70;99.90
42715;DHT22;28351;51.480;5.706;2024-02-21T04:45:18;8.80;99.90
42715;DHT22;28351;51.480;5.706;2024-02-21T04:47:43;8.70;99.90
42715;DHT22;28351;51.480;5.706;2024-02-21T04:50:09;8.80;99.90
42715;DHT22;28351;51.480;5.706;2024-02-21T04:52:35;8.80;99.90
42715;DHT22;28351;51.480;5.706;2024-02-21T04:55:00;8.80;99.90
42715;DHT22;28351;51.480;5.706;2024-02-21T04:57:26;8.80;99.90
42715;DHT22;28351;51.480;5.706;2024-02-21T04:59:51;8.80;99.90
42715;DHT22;28351;51.480;5.706;2024-02-21T05:02:17;8.80;99.90
42715;DHT22;28351;51.480;5.706;2024-02-21T05:04:42;8.70;99.90
42715;DHT22;28351;51.480;5.706;2024-02-21T05:07:08;8.70;99.90
42715;DHT22;28351;51.480;5.706;2024-02-21T05:09:34;8.80;99.90
42715;DHT22;28351;51.480;5.706;2024-02-21T05:11:59;8.80;99.90
42715;DHT22;28351;51.480;5.706;2024-02-21T05:14:25;8.70;99.90
42715;DHT22;28351;51.480;5.706;2024-02-21T05:16:52;8.80;99.90
42715;DHT22;28351;51.480;5.706;2024-02-21T05:19:17;8.70;99.90
42715;DHT22;28351;51.480;5.706;2024-02-21T05:21:43;8.80;99.90
42715;DHT22;28351;51.480;5.706;2024-02-21T05:24:08;8.70;99.90
42715;DHT22;28351;51.480;5.706;2024-02-21T05:26:34;8.70;99.90
42715;DHT22;28351;51.480;5.706;2024-02-21T05:28:59;8.70;99.90
42715;DHT22;28351;51.480;5.706;2024-02-21T05:31:25;8.70;99.90
42715;DHT22;28351;51.480;5.706;2024-02-21T05:33:50;8.70;99.90
42715;DHT22;28351;51.480;5.706;2024-02-21T05:36:16;8.70;99.90
42715;DHT22;28351;51.480;5.706;2024-02-21T05:38:41;8.80;99.90
42715;DHT22;28351;51.480;5.706;2024-02-21T05:41:07;8.80;99.90
42715;DHT22;28351;51.480;5.706;2024-02-21T05:43:32;8.80;99.90
42715;DHT22;28351;51.480;5.706;2024-02-21T05:45:58;8.80;99.90
42715;DHT22;28351;51.480;5.706;2024-02-21T05:48:24;8.70;99.90
42715;DHT22;28351;51.480;5.706;2024-02-21T05:50:50;8.70;99.90
42715;DHT22;28351;51.480;5.706;2024-02-21T05:53:16;8.80;99.90
42715;DHT22;28351;51.480;5.706;2024-02-21T05:55:41;8.70;99.90
42715;DHT22;28351;51.480;5.706;2024-02-21T05:58:07;8.70;99.90
42715;DHT22;28351;51.480;5.706;2024-02-21T06:00:35;8.70;99.90
42715;DHT22;28351;51.480;5.706;2024-02-21T06:03:00;8.80;99.90
42715;DHT22;28351;51.480;5.706;2024-02-21T06:05:27;8.80;99.90
42715;DHT22;28351;51.480;5.706;2024-02-21T06:07:53;8.70;99.90
42715;DHT22;28351;51.480;5.706;2024-02-21T06:10:21;8.80;99.90
42715;DHT22;28351;51.480;5.706;2024-02-21T06:12:46;8.80;99.90
42715;DHT22;28351;51.480;5.706;2024-02-21T06:15:14;8.70;99.90
42715;DHT22;28351;51.480;5.706;2024-02-21T06:17:39;8.80;99.90
42715;DHT22;28351;51.480;5.706;2024-02-21T06:20:05;8.80;99.90
42715;DHT22;28351;51.480;5.706;2024-02-21T06:22:30;8.80;99.90
42715;DHT22;28351;51.480;5.706;2024-02-21T06:24:56;8.80;99.90
42715;DHT22;28351;51.480;5.706;2024-02-21T06:27:22;8.80;99.90
42715;DHT22;28351;51.480;5.706;2024-02-21T06:29:47;8.80;99.90
42715;DHT22;28351;51.480;5.706;2024-02-21T06:32:13;8.70;99.90
42715;DHT22;28351;51.480;5.706;2024-02-21T06:34:38;8.80;99.90
42715;DHT22;28351;51.480;5.706;2024-02-21T06:37:04;8.80;99.90
42715;DHT22;28351;51.480;5.706;2024-02-21T06:39:29;8.80;99.90
42715;DHT22;28351;51.480;5.706;2024-02-21T06:41:55;8.80;99.90
42715;DHT22;28351;51.480;5.706;2024-02-21T06:44:23;8.70;99.90
42715;DHT22;28351;51.480;5.706;2024-02-21T06:46:49;8.80;99.90
42715;DHT22;28351;51.480;5.706;2024-02-21T06:49:14;8.80;99.90
42715;DHT22;28351;51.480;5.706;2024-02-21T06:51:41;8.80;99.90
42715;DHT22;28351;51.480;5.706;2024-02-21T06:54:08;8.80;99.90
42715;DHT22;28351;51.480;5.706;2024-02-21T06:56:33;8.80;99.90
42715;DHT22;28351;51.480;5.706;2024-02-21T06:58:59;8.70;99.90
42715;DHT22;28351;51.480;5.706;2024-02-21T07:01:24;8.80;99.90
42715;DHT22;28351;51.480;5.706;2024-02-21T07:03:50;8.80;99.90
42715;DHT22;28351;51.480;5.706;2024-02-21T07:06:15;8.80;99.90
42715;DHT22;28351;51.480;5.706;2024-02-21T07:08:41;8.80;99.90
42715;DHT22;28351;51.480;5.706;2024-02-21T07:11:06;8.80;99.90
42715;DHT22;28351;51.480;5.706;2024-02-21T07:13:32;8.80;99.90
42715;DHT22;28351;51.480;5.706;2024-02-21T07:15:57;8.90;99.90
42715;DHT22;28351;51.480;5.706;2024-02-21T07:18:23;8.90;99.90
42715;DHT22;28351;51.480;5.706;2024-02-21T07:20:50;8.90;99.90
42715;DHT22;28351;51.480;5.706;2024-02-21T07:23:16;8.90;99.90
42715;DHT22;28351;51.480;5.706;2024-02-21T07:25:41;8.90;99.90
42715;DHT22;28351;51.480;5.706;2024-02-21T07:28:07;8.90;99.90
42715;DHT22;28351;51.480;5.706;2024-02-21T07:30:32;8.90;99.90
42715;DHT22;28351;51.480;5.706;2024-02-21T07:32:58;8.90;99.90
42715;DHT22;28351;51.480;5.706;2024-02-21T07:35:23;8.90;99.90
42715;DHT22;28351;51.480;5.706;2024-02-21T07:37:49;8.90;99.90
42715;DHT22;28351;51.480;5.706;2024-02-21T07:40:15;9.00;99.90
42715;DHT22;28351;51.480;5.706;2024-02-21T07:42:41;8.90;99.90
42715;DHT22;28351;51.480;5.706;2024-02-21T07:45:07;9.00;99.90
42715;DHT22;28351;51.480;5.706;2024-02-21T07:47:33;9.00;99.90
42715;DHT22;28351;51.480;5.706;2024-02-21T07:49:59;9.00;99.90
42715;DHT22;28351;51.480;5.706;2024-02-21T07:52:24;9.00;99.90
42715;DHT22;28351;51.480;5.706;2024-02-21T07:54:50;9.10;99.90
42715;DHT22;28351;51.480;5.706;2024-02-21T07:57:16;9.10;99.90
42715;DHT22;28351;51.480;5.706;2024-02-21T07:59:41;9.10;99.90
42715;DHT22;28351;51.480;5.706;2024-02-21T08:02:07;9.20;99.90
42715;DHT22;28351;51.480;5.706;2024-02-21T08:04:33;9.20;99.90
42715;DHT22;28351;51.480;5.706;2024-02-21T08:06:58;9.10;99.90
42715;DHT22;28351;51.480;5.706;2024-02-21T08:09:29;9.20;99.90
42715;DHT22;28351;51.480;5.706;2024-02-21T08:11:55;9.20;99.90
42715;DHT22;28351;51.480;5.706;2024-02-21T08:14:20;9.20;99.90
42715;DHT22;28351;51.480;5.706;2024-02-21T08:16:46;9.30;99.90
42715;DHT22;28351;51.480;5.706;2024-02-21T08:19:12;9.30;99.90
42715;DHT22;28351;51.480;5.706;2024-02-21T08:21:37;9.30;99.90
42715;DHT22;28351;51.480;5.706;2024-02-21T08:24:03;9.30;99.90
42715;DHT22;28351;51.480;5.706;2024-02-21T08:26:28;9.30;99.90
42715;DHT22;28351;51.480;5.706;2024-02-21T08:28:56;9.40;99.90
42715;DHT22;28351;51.480;5.706;2024-02-21T08:31:25;9.40;99.90
42715;DHT22;28351;51.480;5.706;2024-02-21T08:33:59;9.40;99.90
42715;DHT22;28351;51.480;5.706;2024-02-21T08:36:29;9.40;99.90
42715;DHT22;28351;51.480;5.706;2024-02-21T08:38:55;9.40;99.90
42715;DHT22;28351;51.480;5.706;2024-02-21T08:41:21;9.40;99.90
42715;DHT22;28351;51.480;5.706;2024-02-21T08:43:48;9.40;99.90
42715;DHT22;28351;51.480;5.706;2024-02-21T08:46:14;9.50;99.90
42715;DHT22;28351;51.480;5.706;2024-02-21T08:48:40;9.60;99.90
42715;DHT22;28351;51.480;5.706;2024-02-21T08:51:05;9.60;99.90
42715;DHT22;28351;51.480;5.706;2024-02-21T08:53:31;9.50;99.90
42715;DHT22;28351;51.480;5.706;2024-02-21T08:55:56;9.60;99.90
42715;DHT22;28351;51.480;5.706;2024-02-21T08:58:22;9.60;99.90
42715;DHT22;28351;51.480;5.706;2024-02-21T09:00:49;9.60;99.90
42715;DHT22;28351;51.480;5.706;2024-02-21T09:03:15;9.50;99.90
42715;DHT22;28351;51.480;5.706;2024-02-21T09:05:40;9.50;99.90
42715;DHT22;28351;51.480;5.706;2024-02-21T09:08:06;9.50;99.90
42715;DHT22;28351;51.480;5.706;2024-02-21T09:10:32;9.40;99.90
42715;DHT22;28351;51.480;5.706;2024-02-21T09:12:57;9.40;99.90
42715;DHT22;28351;51.480;5.706;2024-02-21T09:15:24;9.30;99.90
42715;DHT22;28351;51.480;5.706;2024-02-21T09:17:49;9.20;99.90
42715;DHT22;28351;51.480;5.706;2024-02-21T09:20:15;9.20;99.90
42715;DHT22;28351;51.480;5.706;2024-02-21T09:22:41;9.20;99.90
42715;DHT22;28351;51.480;5.706;2024-02-21T09:25:07;9.10;99.90
42715;DHT22;28351;51.480;5.706;2024-02-21T09:27:32;9.10;99.90
42715;DHT22;28351;51.480;5.706;2024-02-21T09:29:58;9.10;99.90
42715;DHT22;28351;51.480;5.706;2024-02-21T09:32:23;9.20;99.90
42715;DHT22;28351;51.480;5.706;2024-02-21T09:34:49;9.20;99.90
42715;DHT22;28351;51.480;5.706;2024-02-21T09:37:14;9.10;99.90
42715;DHT22;28351;51.480;5.706;2024-02-21T09:39:40;9.10;99.90
42715;DHT22;28351;51.480;5.706;2024-02-21T09:42:06;9.10;99.90
42715;DHT22;28351;51.480;5.706;2024-02-21T09:44:37;9.20;99.90
42715;DHT22;28351;51.480;5.706;2024-02-21T09:49:51;9.20;99.90
42715;DHT22;28351;51.480;5.706;2024-02-21T09:52:17;9.30;99.90
42715;DHT22;28351;51.480;5.706;2024-02-21T09:54:44;9.40;99.90
42715;DHT22;28351;51.480;5.706;2024-02-21T09:57:10;9.40;99.90
42715;DHT22;28351;51.480;5.706;2024-02-21T09:59:36;9.40;99.90
42715;DHT22;28351;51.480;5.706;2024-02-21T10:02:02;9.40;99.90
42715;DHT22;28351;51.480;5.706;2024-02-21T10:04:28;9.50;99.90
42715;DHT22;28351;51.480;5.706;2024-02-21T10:06:54;9.60;99.90
42715;DHT22;28351;51.480;5.706;2024-02-21T10:09:27;9.60;99.90
42715;DHT22;28351;51.480;5.706;2024-02-21T10:11:53;9.70;99.90
42715;DHT22;28351;51.480;5.706;2024-02-21T10:14:19;9.80;99.90
42715;DHT22;28351;51.480;5.706;2024-02-21T10:16:48;9.80;99.90
42715;DHT22;28351;51.480;5.706;2024-02-21T10:19:20;10.00;99.90
42715;DHT22;28351;51.480;5.706;2024-02-21T10:22:01;10.00;99.90
42715;DHT22;28351;51.480;5.706;2024-02-21T10:24:29;10.10;99.90
42715;DHT22;28351;51.480;5.706;2024-02-21T10:27:04;10.20;99.90
42715;DHT22;28351;51.480;5.706;2024-02-21T10:29:31;10.30;99.90
42715;DHT22;28351;51.480;5.706;2024-02-21T10:34:32;10.40;99.90
42715;DHT22;28351;51.480;5.706;2024-02-21T10:37:04;10.50;99.90
42715;DHT22;28351;51.480;5.706;2024-02-21T10:39:33;10.60;99.90
42715;DHT22;28351;51.480;5.706;2024-02-21T10:42:02;10.50;99.90
42715;DHT22;28351;51.480;5.706;2024-02-21T10:44:29;10.40;99.90
42715;DHT22;28351;51.480;5.706;2024-02-21T10:46:55;10.40;99.90
42715;DHT22;28351;51.480;5.706;2024-02-21T10:49:26;10.40;99.90
42715;DHT22;28351;51.480;5.706;2024-02-21T10:51:55;10.50;99.90
42715;DHT22;28351;51.480;5.706;2024-02-21T10:56:48;10.60;99.90
42715;DHT22;28351;51.480;5.706;2024-02-21T10:59:15;10.60;99.90
42715;DHT22;28351;51.480;5.706;2024-02-21T11:01:41;10.70;99.90
42715;DHT22;28351;51.480;5.706;2024-02-21T11:04:10;10.70;99.90
42715;DHT22;28351;51.480;5.706;2024-02-21T11:06:38;10.80;99.90
42715;DHT22;28351;51.480;5.706;2024-02-21T11:09:04;10.90;99.90
42715;DHT22;28351;51.480;5.706;2024-02-21T11:11:40;10.90;99.90
42715;DHT22;28351;51.480;5.706;2024-02-21T11:16:38;10.80;99.90
42715;DHT22;28351;51.480;5.706;2024-02-21T11:19:05;10.90;99.90
42715;DHT22;28351;51.480;5.706;2024-02-21T11:21:34;10.80;99.90
42715;DHT22;28351;51.480;5.706;2024-02-21T11:24:01;10.80;99.90
42715;DHT22;28351;51.480;5.706;2024-02-21T11:26:28;10.70;99.90
42715;DHT22;28351;51.480;5.706;2024-02-21T11:28:57;10.80;99.90
42715;DHT22;28351;51.480;5.706;2024-02-21T11:31:22;10.70;99.90
42715;DHT22;28351;51.480;5.706;2024-02-21T11:33:48;10.90;99.90
42715;DHT22;28351;51.480;5.706;2024-02-21T11:36:35;11.00;99.90
42715;DHT22;28351;51.480;5.706;2024-02-21T11:39:03;11.00;99.90
42715;DHT22;28351;51.480;5.706;2024-02-21T11:41:29;11.00;99.90
42715;DHT22;28351;51.480;5.706;2024-02-21T11:43:55;11.10;99.90
42715;DHT22;28351;51.480;5.706;2024-02-21T11:46:21;11.10;99.90
42715;DHT22;28351;51.480;5.706;2024-02-21T11:48:46;11.30;99.90
42715;DHT22;28351;51.480;5.706;2024-02-21T11:51:24;11.70;99.90
42715;DHT22;28351;51.480;5.706;2024-02-21T11:53:51;12.20;99.90
42715;DHT22;28351;51.480;5.706;2024-02-21T11:56:16;12.60;99.90
42715;DHT22;28351;51.480;5.706;2024-02-21T11:58:42;13.10;99.90
42715;DHT22;28351;51.480;5.706;2024-02-21T12:01:08;13.10;99.90
42715;DHT22;28351;51.480;5.706;2024-02-21T12:03:34;12.70;99.90
42715;DHT22;28351;51.480;5.706;2024-02-21T12:06:01;12.10;99.90
42715;DHT22;28351;51.480;5.706;2024-02-21T12:08:40;11.90;99.90
42715;DHT22;28351;51.480;5.706;2024-02-21T12:11:15;11.80;99.90
42715;DHT22;28351;51.480;5.706;2024-02-21T12:13:41;11.90;99.90
42715;DHT22;28351;51.480;5.706;2024-02-21T12:16:06;11.90;99.90
42715;DHT22;28351;51.480;5.706;2024-02-21T12:18:32;12.10;99.90
42715;DHT22;28351;51.480;5.706;2024-02-21T12:20:58;12.40;99.90
42715;DHT22;28351;51.480;5.706;2024-02-21T12:23:26;12.70;99.90
42715;DHT22;28351;51.480;5.706;2024-02-21T12:25:52;12.70;99.90
42715;DHT22;28351;51.480;5.706;2024-02-21T12:28:19;12.80;99.90
42715;DHT22;28351;51.480;5.706;2024-02-21T12:30:45;12.70;99.90
42715;DHT22;28351;51.480;5.706;2024-02-21T12:33:10;12.70;99.90
42715;DHT22;28351;51.480;5.706;2024-02-21T12:35:36;12.40;99.90
42715;DHT22;28351;51.480;5.706;2024-02-21T12:38:01;12.50;99.90
42715;DHT22;28351;51.480;5.706;2024-02-21T12:40:27;12.40;99.90
42715;DHT22;28351;51.480;5.706;2024-02-21T12:43:00;12.40;99.90
42715;DHT22;28351;51.480;5.706;2024-02-21T12:45:28;12.40;99.90
42715;DHT22;28351;51.480;5.706;2024-02-21T12:47:53;12.40;99.90
42715;DHT22;28351;51.480;5.706;2024-02-21T12:50:19;12.40;99.90
42715;DHT22;28351;51.480;5.706;2024-02-21T12:52:45;12.50;99.90
42715;DHT22;28351;51.480;5.706;2024-02-21T12:55:11;12.30;99.90
42715;DHT22;28351;51.480;5.706;2024-02-21T12:57:38;12.20;99.90
42715;DHT22;28351;51.480;5.706;2024-02-21T13:00:05;12.10;99.90
42715;DHT22;28351;51.480;5.706;2024-02-21T13:02:33;12.10;99.90
42715;DHT22;28351;51.480;5.706;2024-02-21T13:04:59;12.00;99.90
42715;DHT22;28351;51.480;5.706;2024-02-21T13:07:25;11.90;99.90
42715;DHT22;28351;51.480;5.706;2024-02-21T13:09:51;11.90;99.90
42715;DHT22;28351;51.480;5.706;2024-02-21T13:12:16;11.80;99.90
42715;DHT22;28351;51.480;5.706;2024-02-21T13:14:42;11.90;99.90
42715;DHT22;28351;51.480;5.706;2024-02-21T13:17:09;11.80;99.90
42715;DHT22;28351;51.480;5.706;2024-02-21T13:19:34;11.90;99.90
42715;DHT22;28351;51.480;5.706;2024-02-21T13:22:00;12.00;99.90
42715;DHT22;28351;51.480;5.706;2024-02-21T13:24:26;11.90;99.90
42715;DHT22;28351;51.480;5.706;2024-02-21T13:26:51;11.90;99.90
42715;DHT22;28351;51.480;5.706;2024-02-21T13:29:17;11.90;99.90
42715;DHT22;28351;51.480;5.706;2024-02-21T13:31:43;11.80;99.90
42715;DHT22;28351;51.480;5.706;2024-02-21T13:34:09;11.80;99.90
42715;DHT22;28351;51.480;5.706;2024-02-21T13:36:34;11.90;99.90
42715;DHT22;28351;51.480;5.706;2024-02-21T13:39:00;11.80;99.90
42715;DHT22;28351;51.480;5.706;2024-02-21T13:41:25;11.80;99.90
42715;DHT22;28351;51.480;5.706;2024-02-21T13:43:51;11.80;99.90
42715;DHT22;28351;51.480;5.706;2024-02-21T13:46:17;11.80;99.90
42715;DHT22;28351;51.480;5.706;2024-02-21T13:48:42;11.70;99.90
42715;DHT22;28351;51.480;5.706;2024-02-21T13:51:08;11.70;99.90
42715;DHT22;28351;51.480;5.706;2024-02-21T13:53:34;11.70;99.90
42715;DHT22;28351;51.480;5.706;2024-02-21T13:56:00;11.60;99.90
42715;DHT22;28351;51.480;5.706;2024-02-21T13:58:25;11.50;99.90
42715;DHT22;28351;51.480;5.706;2024-02-21T14:00:53;11.50;99.90
42715;DHT22;28351;51.480;5.706;2024-02-21T14:03:19;11.50;99.90
42715;DHT22;28351;51.480;5.706;2024-02-21T14:05:45;11.50;99.90
42715;DHT22;28351;51.480;5.706;2024-02-21T14:08:13;11.50;99.90
42715;DHT22;28351;51.480;5.706;2024-02-21T14:10:40;11.50;99.90
42715;DHT22;28351;51.480;5.706;2024-02-21T14:13:05;11.40;99.90
42715;DHT22;28351;51.480;5.706;2024-02-21T14:15:31;11.40;99.90
42715;DHT22;28351;51.480;5.706;2024-02-21T14:17:56;11.40;99.90
42715;DHT22;28351;51.480;5.706;2024-02-21T14:20:22;11.30;99.90
42715;DHT22;28351;51.480;5.706;2024-02-21T14:22:47;11.30;99.90
42715;DHT22;28351;51.480;5.706;2024-02-21T14:25:13;11.30;99.90
42715;DHT22;28351;51.480;5.706;2024-02-21T14:27:40;11.30;99.90
42715;DHT22;28351;51.480;5.706;2024-02-21T14:30:06;11.30;99.90
42715;DHT22;28351;51.480;5.706;2024-02-21T14:32:36;11.30;99.90
42715;DHT22;28351;51.480;5.706;2024-02-21T14:35:03;11.30;99.90
42715;DHT22;28351;51.480;5.706;2024-02-21T14:37:28;11.30;99.90
42715;DHT22;28351;51.480;5.706;2024-02-21T14:39:54;11.30;99.90
42715;DHT22;28351;51.480;5.706;2024-02-21T14:42:19;11.30;99.90
42715;DHT22;28351;51.480;5.706;2024-02-21T14:44:45;11.30;99.90
42715;DHT22;28351;51.480;5.706;2024-02-21T14:47:10;11.30;99.90
42715;DHT22;28351;51.480;5.706;2024-02-21T14:49:36;11.30;99.90
42715;DHT22;28351;51.480;5.706;2024-02-21T14:52:01;11.20;99.90
42715;DHT22;28351;51.480;5.706;2024-02-21T14:54:28;11.30;99.90
42715;DHT22;28351;51.480;5.706;2024-02-21T14:56:53;11.20;99.90
42715;DHT22;28351;51.480;5.706;2024-02-21T14:59:19;11.20;99.90
42715;DHT22;28351;51.480;5.706;2024-02-21T15:01:45;11.10;99.90
42715;DHT22;28351;51.480;5.706;2024-02-21T15:04:10;11.10;99.90
42715;DHT22;28351;51.480;5.706;2024-02-21T15:06:36;11.00;99.90
42715;DHT22;28351;51.480;5.706;2024-02-21T15:09:03;10.90;99.90
42715;DHT22;28351;51.480;5.706;2024-02-21T15:11:29;10.70;99.90
42715;DHT22;28351;51.480;5.706;2024-02-21T15:13:55;10.70;99.90
42715;DHT22;28351;51.480;5.706;2024-02-21T15:16:22;10.60;99.90
42715;DHT22;28351;51.480;5.706;2024-02-21T15:18:47;10.50;99.90
42715;DHT22;28351;51.480;5.706;2024-02-21T15:21:13;10.40;99.90
42715;DHT22;28351;51.480;5.706;2024-02-21T15:23:40;10.40;99.90
42715;DHT22;28351;51.480;5.706;2024-02-21T15:26:06;10.30;99.90
42715;DHT22;28351;51.480;5.706;2024-02-21T15:28:32;10.30;99.90
42715;DHT22;28351;51.480;5.706;2024-02-21T15:30:57;10.20;99.90
42715;DHT22;28351;51.480;5.706;2024-02-21T15:33:23;10.20;99.90
42715;DHT22;28351;51.480;5.706;2024-02-21T15:35:49;10.20;99.90
42715;DHT22;28351;51.480;5.706;2024-02-21T15:38:14;10.10;99.90
42715;DHT22;28351;51.480;5.706;2024-02-21T15:40:40;10.00;99.90
42715;DHT22;28351;51.480;5.706;2024-02-21T15:43:05;9.90;99.90